Time;durP1;ratioP1;P1;durP2;ratioP2;P2;SDS_P1;SDS_P2;PMS_P1;PMS_P2;Temp;Humidity;BMP_temperature;BMP_pressure;BME280_temperature;BME280_humidity;BME280_pressure;Samples;Min_cycle;Max_cycle;Signal;HPM_P1;HPM_P2
2022/11/10 00:01:47;;;;;;;22.05;6.50;;;13.80;99.90;;;14.11;86.92;101486.41;5113461;28;20230;-67
2022/11/10 00:04:34;;;;;;;23.80;7.47;;;13.80;99.90;;;14.15;87.18;101492.63;5113083;28;20508;-66
2022/11/10 00:07:26;;;;;;;19.00;6.38;;;13.80;99.90;;;14.14;87.14;101497.03;5112931;28;20046;-67
2022/11/10 00:10:14;;;;;;;24.58;7.03;;;13.80;99.90;;;14.14;87.51;101488.19;5112578;28;20518;-67
2022/11/10 00:13:01;;;;;;;21.77;6.50;;;13.80;99.90;;;14.14;87.90;101496.16;5113348;28;20059;-67
2022/11/10 00:18:53;;;;;;;23.70;6.57;;;13.80;99.90;;;14.16;88.19;101500.56;5113164;28;20065;-67
2022/11/10 00:21:40;;;;;;;23.75;6.57;;;13.80;99.90;;;13.44;88.02;101373.56;5113077;28;20100;-67
2022/11/10 00:24:29;;;;;;;21.05;6.95;;;13.80;99.90;;;14.20;88.27;101520.06;5113336;28;20058;-67
2022/11/10 00:27:16;;;;;;;25.73;6.82;;;13.80;99.90;;;13.64;88.35;101418.56;5113320;28;20050;-67
2022/11/10 00:30:03;;;;;;;23.85;6.82;;;13.80;99.90;;;14.21;88.49;101521.81;5113149;28;20047;-66
2022/11/10 00:32:50;;;;;;;26.00;7.75;;;13.80;99.90;;;14.20;88.57;101520.06;5113241;28;20516;-67
2022/11/10 00:35:37;;;;;;;26.17;6.93;;;13.80;99.90;;;14.23;88.63;101512.03;5112967;28;20093;-67
2022/11/10 00:38:24;;;;;;;24.38;7.43;;;13.90;99.90;;;14.25;88.51;101507.56;5113277;28;20054;-67
2022/11/10 00:41:12;;;;;;;21.13;7.07;;;13.90;99.90;;;14.28;88.43;101512.91;5113123;28;20562;-67
2022/11/10 00:44:00;;;;;;;21.58;6.25;;;13.90;99.90;;;14.19;88.58;101500.53;5113091;28;20176;-67
2022/11/10 00:46:46;;;;;;;25.08;6.85;;;13.90;99.90;;;12.77;88.68;101261.59;5112886;28;20358;-67
2022/11/10 00:49:33;;;;;;;23.13;6.82;;;13.90;99.90;;;14.16;88.99;101505.91;5113130;28;20074;-67
2022/11/10 00:52:20;;;;;;;23.08;7.28;;;13.90;99.90;;;14.20;89.40;101523.59;5112841;28;20050;-67
2022/11/10 00:55:08;;;;;;;23.73;6.85;;;13.90;99.90;;;14.12;89.38;101532.53;5112633;28;20473;-67
2022/11/10 00:57:57;;;;;;;29.48;7.20;;;13.80;99.90;;;14.00;89.44;101501.59;5113016;28;20055;-67
2022/11/10 01:00:44;;;;;;;27.05;6.40;;;13.80;99.90;;;14.17;89.59;101530.72;5112837;28;20550;-67
2022/11/10 01:03:31;;;;;;;23.45;6.47;;;13.80;99.90;;;14.01;89.52;101506.03;5112481;28;20055;-67
2022/11/10 01:06:20;;;;;;;25.17;7.00;;;13.80;99.90;;;14.12;89.43;101527.22;5112409;28;20429;-67
2022/11/10 01:09:07;;;;;;;20.88;6.68;;;13.80;99.90;;;14.01;89.37;101502.50;5112792;28;20054;-67
2022/11/10 01:11:54;;;;;;;23.67;6.72;;;13.80;99.90;;;14.07;89.43;101527.25;5112466;28;20054;-67
2022/11/10 01:14:42;;;;;;;24.75;6.57;;;13.70;99.90;;;13.95;89.28;101505.19;5112630;28;20169;-67
2022/11/10 01:17:30;;;;;;;25.95;7.13;;;13.70;99.90;;;14.07;88.98;101534.38;5112600;28;20161;-67
2022/11/10 01:20:17;;;;;;;22.75;6.63;;;13.70;99.90;;;14.10;88.94;101532.56;5112478;28;20132;-67
2022/11/10 01:23:05;;;;;;;25.27;7.18;;;13.70;99.90;;;14.11;88.37;101538.78;5112556;28;20424;-67
2022/11/10 01:25:52;;;;;;;22.50;6.75;;;13.70;99.90;;;14.06;88.65;101533.47;5114875;28;20415;-66
2022/11/10 01:28:39;;;;;;;23.83;6.32;;;13.70;99.90;;;14.13;88.63;101547.63;5116052;28;20038;-67
2022/11/10 01:31:27;;;;;;;23.00;6.65;;;13.80;99.90;;;14.12;88.62;101535.19;5115909;28;20073;-67
2022/11/10 01:34:14;;;;;;;24.23;6.68;;;13.80;99.90;;;14.15;88.46;101545.84;5116188;28;20519;-66
2022/11/10 01:37:01;;;;;;;23.73;6.78;;;13.80;99.90;;;14.19;88.49;101550.19;5115997;28;20066;-67
2022/11/10 01:39:47;;;;;;;32.25;8.13;;;13.80;99.90;;;14.18;88.20;101538.69;5116090;28;20128;-67
2022/11/10 01:42:45;;;;;;;23.13;6.78;;;13.80;99.90;;;13.55;88.38;101432.81;5116165;28;20054;-67
2022/11/10 01:45:50;;;;;;;22.25;6.93;;;13.80;99.90;;;14.17;88.77;101542.25;5116060;28;20047;-67
2022/11/10 01:48:44;;;;;;;21.25;6.53;;;13.80;99.90;;;14.18;88.67;101541.34;5116343;28;20058;-67
2022/11/10 01:51:38;;;;;;;26.63;6.78;;;13.80;99.90;;;14.20;88.63;101559.97;5116076;28;20054;-67
2022/11/10 01:54:29;;;;;;;25.10;6.65;;;13.80;99.90;;;14.14;88.29;101554.69;5116186;28;20058;-67
2022/11/10 01:57:17;;;;;;;32.38;7.55;;;13.80;99.90;;;14.15;87.83;101552.00;5116160;28;20058;-67
2022/11/10 02:00:06;;;;;;;20.95;7.10;;;13.80;99.90;;;14.08;87.55;101568.94;5115559;28;20061;-69
2022/11/10 02:03:01;;;;;;;23.65;6.80;;;13.80;99.90;;;13.93;87.89;101577.03;5115565;28;20050;-67
2022/11/10 02:05:50;;;;;;;26.90;7.43;;;13.80;99.90;;;14.01;87.89;101593.81;5115398;28;20120;-67
2022/11/10 02:08:37;;;;;;;25.40;7.03;;;13.70;99.90;;;13.98;88.31;101595.59;5115449;28;20047;-68
2022/11/10 02:11:25;;;;;;;21.92;7.22;;;13.60;99.90;;;13.96;88.25;101592.94;5115522;28;20058;-67
2022/11/10 02:14:14;;;;;;;25.52;7.05;;;13.60;99.90;;;13.98;88.48;101582.28;5115495;28;20050;-67
2022/11/10 02:17:03;;;;;;;27.63;7.60;;;13.60;99.90;;;14.00;88.17;101596.47;5115707;28;20515;-67
2022/11/10 02:19:52;;;;;;;22.08;7.40;;;13.60;99.90;;;13.95;87.98;101603.59;5115358;28;20435;-66
2022/11/10 02:22:41;;;;;;;22.73;6.63;;;13.60;99.90;;;13.95;87.67;101611.59;5115678;28;20511;-67
2022/11/10 02:25:32;;;;;;;21.42;6.32;;;13.60;99.90;;;13.91;87.92;101612.50;5115705;28;20050;-67
2022/11/10 02:28:19;;;;;;;30.02;7.32;;;13.60;99.90;;;13.87;87.52;101616.97;5115382;28;20149;-67
2022/11/10 02:31:08;;;;;;;24.77;6.97;;;13.60;99.90;;;13.86;87.78;101609.00;5115510;28;20412;-67
2022/11/10 02:33:54;;;;;;;25.88;7.22;;;13.50;99.90;;;13.85;87.77;101621.41;5115289;28;20178;-67
2022/11/10 02:36:41;;;;;;;27.50;7.32;;;13.50;99.90;;;13.72;87.28;101603.75;5114275;28;20084;-67
2022/11/10 02:39:30;;;;;;;27.08;6.70;;;13.50;99.90;;;13.83;87.33;101639.13;5115244;28;20046;-67
2022/11/10 02:42:17;;;;;;;21.50;6.45;;;13.50;99.90;;;13.83;87.41;101638.25;5115011;28;20054;-66
2022/11/10 02:45:05;;;;;;;26.58;6.20;;;13.50;99.90;;;13.31;87.03;101548.16;5114811;28;20141;-66
2022/11/10 02:47:52;;;;;;;21.85;7.40;;;13.50;99.90;;;13.83;86.84;101630.28;5114571;28;20054;-67
2022/11/10 02:50:39;;;;;;;19.63;6.65;;;13.50;99.90;;;13.81;87.18;101637.38;5114551;28;20161;-66
2022/11/10 02:53:27;;;;;;;21.67;6.68;;;13.50;99.90;;;13.66;87.10;101613.53;5114515;28;20105;-67
2022/11/10 02:56:15;;;;;;;23.33;7.22;;;13.50;99.90;;;13.76;86.85;101637.41;5114689;28;20480;-67
2022/11/10 02:59:03;;;;;;;21.58;6.72;;;13.50;99.90;;;13.77;86.98;101651.56;5114286;28;20053;-67
2022/11/10 03:01:50;;;;;;;22.73;6.32;;;13.40;99.90;;;13.75;86.80;101651.59;5114496;28;20409;-67
2022/11/10 03:04:37;;;;;;;25.25;6.78;;;13.40;99.90;;;13.71;86.72;101659.56;5114214;28;20416;-67
2022/11/10 03:07:24;;;;;;;20.52;6.30;;;13.40;99.90;;;13.72;86.90;101664.00;5114115;28;20076;-67
2022/11/10 03:10:11;;;;;;;27.95;7.00;;;13.40;99.90;;;13.64;86.69;101652.53;5114305;28;20051;-67
2022/11/10 03:13:01;;;;;;;26.38;6.63;;;13.30;99.90;;;13.37;86.67;101621.63;5113964;28;20054;-67
2022/11/10 03:15:49;;;;;;;20.60;6.30;;;13.30;99.90;;;13.55;87.08;101658.75;5113959;28;20070;-66
2022/11/10 03:18:35;;;;;;;25.30;7.22;;;13.30;99.90;;;13.55;87.33;101666.72;5113896;28;20474;-67
2022/11/10 03:21:22;;;;;;;22.02;6.93;;;13.20;99.90;;;13.56;87.79;101676.47;5113933;28;20054;-67
2022/11/10 03:24:10;;;;;;;22.65;6.53;;;13.20;99.90;;;13.56;88.23;101681.81;5113753;28;20050;-67
2022/11/10 03:26:57;;;;;;;25.92;6.35;;;13.20;99.90;;;13.42;88.12;101652.63;5113726;28;20519;-67
2022/11/10 03:29:45;;;;;;;22.88;6.35;;;13.20;99.90;;;13.50;88.66;101673.84;5113756;28;20046;-67
2022/11/10 03:32:32;;;;;;;26.38;6.70;;;13.20;99.90;;;13.48;88.78;101671.19;5113812;28;20433;-67
2022/11/10 03:35:19;;;;;;;22.85;6.80;;;13.20;99.90;;;13.46;88.98;101672.97;5113969;28;20050;-67
2022/11/10 03:38:06;;;;;;;27.98;6.70;;;13.10;99.90;;;13.41;89.43;101674.75;5113993;28;20131;-67
2022/11/10 03:40:53;;;;;;;23.17;7.25;;;13.10;99.90;;;13.43;89.44;101678.28;5114053;28;20058;-67
2022/11/10 03:44:00;;;;;;;23.40;7.13;;;13.10;99.90;;;13.38;89.98;101688.06;5114045;28;20177;-67
2022/11/10 03:46:48;;;;;;;23.73;7.50;;;13.10;99.90;;;13.31;90.29;101688.09;5113662;28;20188;-67
2022/11/10 03:49:37;;;;;;;24.73;7.20;;;13.00;99.90;;;13.26;90.88;101685.41;5113699;28;20152;-67
2022/11/10 03:52:24;;;;;;;28.38;7.22;;;12.90;99.90;;;13.23;91.57;101684.56;5113657;28;20116;-67
2022/11/10 03:55:13;;;;;;;28.58;7.32;;;12.90;99.90;;;13.28;91.82;101691.63;5113550;28;20504;-67
2022/11/10 03:58:02;;;;;;;31.52;7.68;;;12.90;99.90;;;13.32;91.42;101704.00;5113792;28;20100;-67
2022/11/10 04:00:49;;;;;;;27.85;7.65;;;13.00;99.90;;;13.30;91.51;101705.78;5113473;28;20097;-67
2022/11/10 04:03:37;;;;;;;30.13;8.25;;;13.00;99.90;;;13.20;91.72;101708.47;5113550;28;20093;-67
2022/11/10 04:09:29;;;;;;;30.88;7.90;;;12.90;99.90;;;13.11;92.38;101717.34;5113376;28;20149;-67
2022/11/10 04:18:25;;;;;;;30.63;8.32;;;12.70;99.90;;;13.07;92.64;101722.66;5113393;28;20062;-67
2022/11/10 04:21:13;;;;;;;22.30;7.15;;;12.80;99.90;;;12.98;92.99;101718.22;5113260;28;20060;-67
2022/11/10 04:24:00;;;;;;;24.13;7.10;;;12.80;99.90;;;12.99;93.10;101719.97;5113201;28;20462;-67
2022/11/10 04:26:48;;;;;;;31.63;7.18;;;12.70;99.90;;;12.99;93.35;101727.94;5113189;28;20177;-67
2022/11/10 04:29:35;;;;;;;29.88;8.20;;;12.70;99.90;;;12.97;93.34;101732.34;5113343;28;20069;-67
2022/11/10 04:32:22;;;;;;;31.38;7.85;;;12.70;99.90;;;13.01;93.45;101733.22;5112805;28;20288;-67
2022/11/10 04:35:09;;;;;;;28.92;7.07;;;12.70;99.90;;;13.04;93.39;101743.91;5113047;28;20051;-67
2022/11/10 04:37:57;;;;;;;24.10;7.18;;;12.70;99.90;;;13.02;93.11;101765.13;5112933;28;20496;-67
2022/11/10 04:40:44;;;;;;;34.33;8.25;;;12.70;99.90;;;12.87;92.98;101713.78;5112780;28;20065;-67
2022/11/10 04:43:32;;;;;;;26.40;8.05;;;12.70;99.90;;;13.08;93.33;101761.63;5112725;28;20120;-67
2022/11/10 04:46:23;;;;;;;21.30;7.63;;;12.70;99.90;;;13.05;93.21;101767.81;5112926;28;20511;-67
2022/11/10 04:49:11;;;;;;;28.55;8.52;;;12.80;99.90;;;13.03;93.22;101764.25;5112716;28;20624;-67
2022/11/10 04:51:58;;;;;;;29.00;8.18;;;12.70;99.90;;;13.01;93.33;101765.09;5112735;28;20042;-68
2022/11/10 04:54:46;;;;;;;23.48;7.55;;;12.70;99.90;;;12.99;93.34;101773.09;5112964;28;20051;-67
2022/11/10 04:57:33;;;;;;;31.55;8.02;;;12.70;99.90;;;12.97;93.87;101776.66;5112990;28;20092;-67
2022/11/10 05:00:20;;;;;;;24.67;7.75;;;12.70;99.90;;;12.51;93.91;101701.38;5114843;28;20046;-67
2022/11/10 05:03:10;;;;;;;27.63;8.57;;;12.60;99.90;;;12.98;93.97;101771.31;5116997;28;20047;-67
2022/11/10 05:05:57;;;;;;;20.45;7.95;;;12.60;99.90;;;12.93;93.83;101772.22;5116643;28;20160;-67
2022/11/10 05:08:46;;;;;;;24.85;8.43;;;12.70;99.90;;;12.92;94.04;101768.66;5116492;28;20454;-67
2022/11/10 05:11:34;;;;;;;26.15;7.70;;;12.60;99.90;;;12.97;93.93;101766.88;5116635;28;20049;-67
2022/11/10 05:14:21;;;;;;;27.48;8.32;;;12.70;99.90;;;12.96;93.77;101773.09;5116844;28;20046;-68
2022/11/10 05:17:08;;;;;;;31.25;7.43;;;12.60;99.90;;;12.98;93.80;101778.41;5117078;28;20606;-69
2022/11/10 05:19:55;;;;;;;28.67;9.15;;;12.70;99.90;;;12.83;93.76;101760.69;5116728;28;20134;-67
2022/11/10 05:22:45;;;;;;;30.73;9.25;;;12.70;99.90;;;13.02;93.49;101789.03;5116809;28;20065;-67
2022/11/10 05:25:37;;;;;;;23.52;8.23;;;12.70;99.90;;;13.02;93.55;101778.41;5116879;28;20134;-67
2022/11/10 05:28:25;;;;;;;29.15;8.65;;;12.70;99.90;;;13.01;93.35;101796.97;5116527;28;20050;-67
2022/11/10 05:31:13;;;;;;;31.40;8.30;;;12.70;99.90;;;12.84;93.10;101773.06;5116331;28;20077;-67
2022/11/10 05:34:00;;;;;;;24.50;7.80;;;12.70;99.90;;;13.01;93.25;101786.34;5116344;28;20092;-67
2022/11/10 05:36:46;;;;;;;24.48;7.53;;;12.70;99.90;;;12.90;93.18;101777.50;5116045;28;20470;-67
2022/11/10 05:39:33;;;;;;;22.42;7.72;;;12.70;99.90;;;13.09;92.78;101797.91;5116141;28;20058;-67
2022/11/10 05:42:20;;;;;;;28.15;7.65;;;12.70;99.90;;;13.08;92.48;101789.06;5116253;28;20121;-66
2022/11/10 05:45:10;;;;;;;25.73;8.35;;;12.80;99.90;;;13.05;92.44;101794.38;5115911;28;20051;-67
2022/11/10 05:47:57;;;;;;;29.40;8.30;;;12.70;99.90;;;12.86;92.71;101763.34;5115864;28;20051;-67
2022/11/10 05:50:44;;;;;;;26.13;7.70;;;12.80;99.90;;;12.61;92.54;101788.97;5115864;28;20148;-67
2022/11/10 05:53:31;;;;;;;25.25;7.70;;;12.80;99.90;;;12.86;92.72;101779.28;5116120;28;20504;-67
2022/11/10 05:56:18;;;;;;;27.38;7.22;;;12.80;99.90;;;13.03;93.02;101811.13;5116043;28;20046;-67
2022/11/10 05:59:05;;;;;;;30.27;7.15;;;12.70;99.90;;;12.94;93.36;101817.34;5115952;28;20059;-67
2022/11/10 06:01:54;;;;;;;23.85;7.18;;;12.70;99.90;;;12.97;93.63;101813.81;5115751;28;20062;-67
2022/11/10 06:04:41;;;;;;;29.13;7.93;;;12.70;99.90;;;12.94;93.55;101793.44;5115714;28;20047;-67
2022/11/10 06:07:28;;;;;;;26.92;7.80;;;12.70;99.90;;;13.01;93.50;101827.09;5115574;28;20607;-67
2022/11/10 06:10:16;;;;;;;21.65;7.13;;;12.70;99.90;;;12.99;94.05;101830.66;5115618;28;20132;-67
2022/11/10 06:13:03;;;;;;;29.67;7.85;;;12.70;99.90;;;12.86;94.01;101810.25;5115625;28;20519;-67
2022/11/10 06:15:50;;;;;;;25.65;7.40;;;12.60;99.90;;;12.94;94.32;101830.63;5115433;28;20070;-67
2022/11/10 06:18:38;;;;;;;26.80;7.57;;;12.70;99.90;;;13.00;94.40;101835.94;5115550;28;20066;-67
2022/11/10 06:21:25;;;;;;;26.10;7.57;;;12.60;99.90;;;12.82;94.30;101812.00;5115277;28;20039;-67
2022/11/10 06:24:12;;;;;;;28.08;7.68;;;12.60;99.90;;;12.75;94.45;101823.53;5115241;28;20050;-67
2022/11/10 06:26:59;;;;;;;25.80;7.43;;;12.60;99.90;;;12.91;94.36;101843.88;5115744;28;20499;-67
2022/11/10 06:29:46;;;;;;;26.48;7.38;;;12.60;99.90;;;12.91;94.51;101843.88;5115442;28;20050;-67
2022/11/10 06:32:35;;;;;;;26.30;7.07;;;12.60;99.90;;;12.84;94.75;101855.38;5115139;28;20456;-67
2022/11/10 06:35:24;;;;;;;25.50;6.70;;;12.60;99.90;;;12.87;94.92;101852.75;5115071;28;20066;-67
2022/11/10 06:38:12;;;;;;;27.38;7.35;;;12.60;99.90;;;12.87;94.91;101862.50;5114992;28;20161;-67
2022/11/10 06:40:59;;;;;;;31.63;8.48;;;12.50;99.90;;;12.58;95.30;101828.78;5115201;28;20058;-67
2022/11/10 06:43:46;;;;;;;24.55;6.90;;;12.50;99.90;;;12.91;95.06;101880.19;5115140;28;20050;-68
2022/11/10 06:46:33;;;;;;;22.08;7.00;;;12.60;99.90;;;12.88;95.19;101881.06;5114903;28;20108;-68
2022/11/10 06:49:27;;;;;;;24.00;7.30;;;12.60;99.90;;;12.87;95.13;101887.28;5114909;28;20062;-67
2022/11/10 06:52:16;;;;;;;22.95;6.90;;;12.60;99.90;;;12.91;95.18;101896.13;5114672;28;20131;-67
2022/11/10 06:55:04;;;;;;;27.80;7.65;;;12.60;99.90;;;12.90;95.01;101889.94;5114580;28;20491;-67
2022/11/10 06:57:53;;;;;;;29.83;8.50;;;12.60;99.90;;;12.96;95.02;101903.22;5114562;28;20062;-67
2022/11/10 07:00:40;;;;;;;31.27;7.53;;;12.60;99.90;;;12.93;94.72;101915.63;5114419;28;20039;-67
2022/11/10 07:03:30;;;;;;;34.08;8.45;;;12.60;99.90;;;12.75;95.18;101884.59;5114385;28;20511;-67
2022/11/10 07:06:17;;;;;;;27.95;7.45;;;12.60;99.90;;;12.94;95.14;101922.69;5114456;28;20059;-68
2022/11/10 07:09:05;;;;;;;20.35;7.50;;;12.70;99.90;;;12.88;94.83;101899.66;5114790;28;20050;-67
2022/11/10 07:11:52;;;;;;;25.75;7.97;;;12.60;99.90;;;13.06;94.87;101920.09;5114351;28;20058;-67
2022/11/10 07:14:38;;;;;;;29.23;7.88;;;12.70;99.90;;;12.90;95.09;101887.28;5114220;28;20050;-67
2022/11/10 07:17:26;;;;;;;24.52;7.22;;;12.80;99.90;;;13.16;94.69;101906.81;5113719;28;20077;-67
2022/11/10 07:20:13;;;;;;;29.42;7.85;;;12.90;99.90;;;13.34;94.54;101913.94;5113778;28;20054;-67
2022/11/10 07:23:01;;;;;;;23.73;7.03;;;13.00;99.90;;;13.45;94.06;101923.69;5113327;28;20573;-67
2022/11/10 07:25:50;;;;;;;22.58;6.53;;;13.20;99.90;;;13.44;93.39;101892.69;5113645;28;20189;-67
2022/11/10 07:28:37;;;;;;;27.52;7.03;;;13.30;99.90;;;13.69;92.89;101929.91;5113604;28;20092;-68
2022/11/10 07:31:24;;;;;;;29.55;7.30;;;13.40;99.90;;;13.58;92.50;101884.72;5113561;28;20136;-68
2022/11/10 07:34:12;;;;;;;23.83;7.00;;;13.50;99.90;;;13.93;92.02;101949.41;5113960;28;20063;-67
2022/11/10 07:36:59;;;;;;;25.77;6.90;;;13.60;99.90;;;14.15;91.01;101934.31;5113812;28;20407;-67
2022/11/10 07:39:46;;;;;;;23.75;6.95;;;13.80;99.90;;;14.33;90.20;101942.28;5113932;28;20066;-67
2022/11/10 07:42:40;;;;;;;22.15;7.03;;;14.00;99.90;;;14.57;89.26;101955.53;5113440;28;20142;-67
2022/11/10 07:45:27;;;;;;;24.35;6.85;;;14.20;99.90;;;14.40;87.97;101888.16;5113404;28;20055;-67
2022/11/10 07:48:14;;;;;;;20.13;6.90;;;14.40;99.90;;;14.96;87.14;101947.34;5113146;28;20093;-67
2022/11/10 07:51:01;;;;;;;31.17;7.60;;;14.60;99.90;;;15.14;86.27;101949.91;5113338;28;20055;-67
2022/11/10 07:53:48;;;;;;;26.60;7.53;;;14.80;99.90;;;15.24;85.21;101940.09;5113511;28;20058;-67
2022/11/10 07:56:35;;;;;;;20.25;6.60;;;15.00;99.90;;;15.45;84.17;101961.31;5113233;28;20701;-67
2022/11/10 07:59:23;;;;;;;23.80;6.80;;;15.20;99.90;;;15.69;83.70;101973.59;5113211;28;20116;-67
2022/11/10 08:02:11;;;;;;;25.00;6.75;;;15.30;99.90;;;15.81;82.70;101966.38;5113365;28;20150;-67
2022/11/10 08:04:58;;;;;;;19.88;6.78;;;15.50;99.90;;;16.02;81.90;101975.97;5113209;28;20070;-67
2022/11/10 08:07:45;;;;;;;23.02;6.78;;;15.70;99.90;;;16.17;80.92;101978.50;5113094;28;20059;-67
2022/11/10 08:10:33;;;;;;;21.63;6.93;;;15.90;99.90;;;16.26;80.22;101997.09;5113120;28;20446;-67
2022/11/10 08:13:20;;;;;;;25.38;6.82;;;16.00;99.90;;;16.36;79.79;101989.88;5112927;28;20046;-67
2022/11/10 08:16:10;;;;;;;28.00;7.57;;;16.10;99.90;;;16.37;79.13;101989.88;5112918;28;20057;-67
2022/11/10 08:18:57;;;;;;;28.10;7.22;;;16.10;99.90;;;16.32;78.96;101998.84;5113197;28;20092;-68
2022/11/10 08:21:44;;;;;;;20.42;7.28;;;16.00;99.90;;;15.95;79.28;101991.13;5112895;28;20405;-67
2022/11/10 08:24:31;;;;;;;20.85;7.05;;;15.90;99.90;;;15.87;79.95;102013.47;5112761;28;20046;-67
2022/11/10 08:27:18;;;;;;;22.77;7.05;;;15.60;99.90;;;15.87;80.84;102022.34;5112933;28;20058;-67
2022/11/10 08:30:08;;;;;;;22.48;6.78;;;15.50;99.90;;;15.89;81.13;102022.34;5113098;28;20054;-67
2022/11/10 08:32:59;;;;;;;20.85;6.13;;;15.60;99.90;;;15.81;81.11;102017.06;5113515;28;20097;-67
2022/11/10 08:35:48;;;;;;;21.13;7.28;;;15.50;99.90;;;15.78;81.33;102018.84;5115905;28;20059;-67
2022/11/10 08:38:35;;;;;;;23.38;6.68;;;15.50;99.90;;;15.68;81.51;101996.69;5117284;28;20062;-67
2022/11/10 08:41:22;;;;;;;25.85;7.45;;;15.50;99.90;;;15.89;81.54;102017.00;5117096;28;20050;-67
2022/11/10 08:44:09;;;;;;;22.73;6.07;;;15.50;99.90;;;15.99;81.32;102021.34;5117140;28;20051;-67
2022/11/10 08:46:57;;;;;;;24.17;6.75;;;15.70;99.90;;;16.22;81.14;102030.06;5116947;28;20055;-67
2022/11/10 08:49:45;;;;;;;24.80;7.20;;;15.80;99.90;;;16.33;80.52;102017.50;5116766;28;20050;-67
2022/11/10 08:52:32;;;;;;;22.88;6.88;;;16.00;99.90;;;16.62;79.76;102018.13;5117112;28;20443;-67
2022/11/10 08:55:20;;;;;;;22.02;7.28;;;16.20;99.90;;;16.85;78.63;102023.22;5116940;28;20113;-66
2022/11/10 08:58:08;;;;;;;19.60;6.53;;;16.60;99.90;;;17.05;77.90;102023.88;5117143;28;20413;-67
2022/11/10 09:00:55;;;;;;;27.25;7.70;;;16.70;99.90;;;17.17;77.37;102017.47;5117536;28;20055;-66
2022/11/10 09:03:42;;;;;;;20.42;6.00;;;16.90;99.90;;;17.38;76.93;102017.19;5117064;28;20058;-67
2022/11/10 09:06:30;;;;;;;23.35;6.43;;;17.00;99.90;;;17.40;75.97;102008.22;5117068;28;20100;-66
2022/11/10 09:09:17;;;;;;;19.83;6.85;;;17.10;99.90;;;17.69;75.37;102018.56;5116518;28;20468;-67
2022/11/10 09:12:04;;;;;;;23.55;6.55;;;17.30;99.90;;;17.69;74.11;102029.25;5116739;28;20058;-67
2022/11/10 09:14:52;;;;;;;24.00;7.18;;;17.40;99.90;;;17.74;74.42;102035.41;5116406;28;20097;-67
2022/11/10 09:17:40;;;;;;;22.40;7.25;;;17.50;99.90;;;18.02;74.38;102034.09;5116347;28;20104;-66
2022/11/10 09:20:28;;;;;;;23.40;6.90;;;17.70;99.90;;;17.71;73.41;101982.81;5116527;28;20050;-67
2022/11/10 09:23:19;;;;;;;22.40;6.80;;;17.70;99.90;;;18.20;73.48;102033.75;5116356;28;20050;-67
2022/11/10 09:26:06;;;;;;;20.92;6.82;;;18.00;99.90;;;18.43;72.38;102036.06;5116506;28;20093;-67
2022/11/10 09:28:54;;;;;;;18.33;6.43;;;18.10;99.90;;;18.35;72.25;102043.34;5116264;28;20045;-67
2022/11/10 09:31:43;;;;;;;20.95;6.53;;;18.00;99.90;;;18.16;72.56;102010.63;5116430;28;20054;-67
2022/11/10 09:34:30;;;;;;;18.35;6.70;;;18.10;99.90;;;18.23;72.73;102040.88;5116430;28;20598;-67
2022/11/10 09:37:17;;;;;;;20.67;6.45;;;18.00;99.90;;;18.45;72.57;102056.56;5116425;28;20047;-67
2022/11/10 09:40:07;;;;;;;18.88;6.65;;;18.20;99.90;;;18.33;72.27;102048.69;5116185;28;20050;-67
2022/11/10 09:43:01;;;;;;;27.55;7.50;;;18.10;99.90;;;18.27;72.30;102067.59;5116356;28;20050;-67
2022/11/10 09:45:51;;;;;;;19.45;6.10;;;18.00;99.90;;;18.18;73.00;102065.03;5115777;28;20055;-66
2022/11/10 09:48:44;;;;;;;18.42;6.28;;;17.90;99.90;;;18.07;73.26;102076.84;5115951;28;20055;-67
2022/11/10 09:51:36;;;;;;;24.33;6.88;;;17.80;99.90;;;18.15;73.97;102064.22;5115984;28;20039;-66
2022/11/10 09:54:36;;;;;;;19.45;6.85;;;17.90;99.90;;;18.43;73.56;102090.53;5116068;28;20153;-67
2022/11/10 09:57:26;;;;;;;18.42;6.35;;;18.10;99.90;;;18.52;73.79;102106.50;5116069;28;20059;-67
2022/11/10 10:00:15;;;;;;;18.05;6.70;;;18.20;99.90;;;18.45;73.40;102111.94;5115807;28;20490;-66
2022/11/10 10:03:04;;;;;;;20.98;6.53;;;18.20;99.90;;;18.47;73.64;102121.75;5115587;28;20046;-66
2022/11/10 10:06:03;;;;;;;20.67;6.40;;;18.10;99.90;;;18.27;73.34;102128.31;5115775;28;20070;-66
2022/11/10 10:09:06;;;;;;;18.40;6.55;;;18.10;99.90;;;18.33;73.47;102131.75;5115469;28;20051;-66
2022/11/10 10:12:10;;;;;;;19.88;6.35;;;18.00;99.90;;;18.26;73.50;102148.84;5115417;28;20126;-66
2022/11/10 10:15:16;;;;;;;20.63;5.93;;;18.00;99.90;;;18.21;73.95;102150.72;5115313;28;20466;-67
2022/11/10 10:18:21;;;;;;;23.67;6.70;;;17.90;99.90;;;18.18;73.90;102152.53;5115097;28;20108;-67
2022/11/10 10:21:25;;;;;;;25.85;6.55;;;17.90;99.90;;;18.03;74.25;102148.31;5115303;28;20074;-67
2022/11/10 10:24:15;;;;;;;20.08;5.78;;;17.80;99.90;;;17.99;75.09;102138.56;5115263;28;20042;-66
2022/11/10 10:27:13;;;;;;;16.73;5.65;;;17.60;99.90;;;17.80;74.92;102099.56;5115292;28;20124;-67
2022/11/10 10:30:01;;;;;;;22.85;6.35;;;17.70;99.90;;;17.91;74.66;102133.31;5115141;28;20074;-66
2022/11/10 10:32:48;;;;;;;20.17;6.32;;;17.60;99.90;;;17.78;75.18;102114.75;5115229;28;20416;-66
2022/11/10 10:35:35;;;;;;;22.67;6.68;;;17.60;99.90;;;17.72;75.67;102149.63;5115063;28;20063;-66
2022/11/10 10:38:33;;;;;;;20.35;6.30;;;17.40;99.90;;;17.73;75.65;102148.75;5114682;28;20051;-66
2022/11/10 10:41:25;;;;;;;26.38;6.75;;;17.40;99.90;;;17.58;75.95;102144.47;5114786;28;20128;-66
2022/11/10 10:44:15;;;;;;;18.88;6.25;;;17.40;99.90;;;17.51;76.41;102153.47;5114726;28;20698;-67
2022/11/10 10:47:03;;;;;;;21.80;7.23;;;17.20;99.90;;;17.49;76.93;102154.41;5114939;28;20096;-66
2022/11/10 10:49:50;;;;;;;25.65;6.32;;;17.20;99.90;;;17.42;77.17;102166.06;5114391;28;20058;-66
2022/11/10 10:52:37;;;;;;;19.55;6.72;;;17.10;99.90;;;17.42;77.01;102174.09;5114405;28;20074;-66
2022/11/10 10:55:29;;;;;;;19.27;6.80;;;17.10;99.90;;;17.01;77.34;102124.59;5114234;28;20462;-66
2022/11/10 10:58:24;;;;;;;28.35;6.85;;;16.90;99.90;;;16.93;77.89;102106.88;5113608;28;20055;-67
2022/11/10 11:01:30;;;;;;;22.35;6.50;;;16.90;99.90;;;17.31;77.54;102178.63;5114237;28;20143;-67
2022/11/10 11:04:33;;;;;;;25.73;7.63;;;17.00;99.90;;;17.20;77.97;102183.22;5114439;28;20108;-66
2022/11/10 11:07:23;;;;;;;18.70;6.07;;;16.90;99.90;;;16.94;77.96;102140.72;5114587;28;20053;-67
2022/11/10 11:10:23;;;;;;;23.83;6.60;;;16.90;99.90;;;17.10;78.06;102196.72;5114413;28;20545;-67
2022/11/10 11:13:15;;;;;;;20.00;6.40;;;16.80;99.90;;;17.06;78.63;102204.75;5114299;28;20054;-67
2022/11/10 11:16:06;;;;;;;25.08;6.60;;;16.70;99.90;;;16.90;78.87;102163.91;5114432;28;20047;-67
2022/11/10 11:18:52;;;;;;;22.80;6.75;;;16.80;99.90;;;17.04;78.45;102195.88;5114841;28;20058;-67
2022/11/10 11:21:55;;;;;;;24.25;6.38;;;16.70;99.90;;;16.97;78.75;102197.72;5114252;28;20071;-67
2022/11/10 11:24:49;;;;;;;21.90;6.80;;;16.70;99.90;;;17.00;79.47;102196.78;5114083;28;20157;-67
2022/11/10 11:27:48;;;;;;;22.52;6.35;;;16.70;99.90;;;16.88;79.28;102208.50;5113888;28;20412;-67
2022/11/10 11:30:50;;;;;;;22.60;7.15;;;16.60;99.90;;;16.76;79.77;102213.94;5113671;28;20096;-66
2022/11/10 11:33:46;;;;;;;18.98;6.03;;;16.50;99.90;;;16.72;80.11;102195.28;5113649;28;20104;-68
2022/11/10 11:36:44;;;;;;;19.60;6.43;;;16.50;99.90;;;16.53;79.77;102175.81;5113591;28;20177;-67
2022/11/10 11:39:43;;;;;;;23.15;6.65;;;16.50;99.90;;;16.91;79.91;102208.47;5113330;28;20536;-67
2022/11/10 11:42:50;;;;;;;17.52;5.75;;;16.60;99.90;;;16.85;79.29;102181.81;5113556;28;20136;-67
2022/11/10 11:45:49;;;;;;;17.13;6.20;;;16.70;99.90;;;17.02;79.38;102211.03;5113577;28;20455;-68
2022/11/10 11:49:02;;;;;;;21.58;5.65;;;16.70;99.90;;;16.91;78.95;102213.81;5113543;28;20062;-68